Annie Pit, United Kingdom
Current Conditions -  °F | °C
As of 5:50 PM on Thursday 30 Oct 2014 (Local Time) from EGNC Reporting Station
Broken Clouds Broken Clouds  
Wind Chill: 59°   Ceiling: 2500
Heat Index: 59°   Visibility: 6mi
Dew Point: 55°   Wind: 9mph
Humidity: 88%   Direction: 190°S
Pressure: 29.91"   Gusts: NA
Location:  54.65°N, 3.54°W
Report Text: EGNC 301750Z 19008KT 150V220 9999 FEW018 BKN025 15/13 Q1013
Loading
Personal Weather Stations






























Interactive Weather Map
Tropical Storm Tracking
New forecast layout! Learn more

10-Day Weather Forecast

Advertisements
Track Severe Weather on mobile